Shelby — WCV6157 — position and weather

sailwx.info

Track history (hours):
 
Tides and Currents Weather Stations Pressure Air Temp Water Temp Dewpoint Dewpoint Depression Visibility Wind Speed Wind Dir Waves Ship Positions

Shelby

Owner: WEEKS MARINE, INC., CRANFORD, NJ. More information available from US FCC via Universal Licensing System and Coast Guard Vessel Documentation Center.

Last reported at 2014-Nov-12 23:05 UTC. Time now 2014-Nov-29 08:34 UTC.
Position N 38°03' W 076°14'.
Warning: this ship's position is 16 days out of date.

Length 22 m; draft 3.1 m.

Type: Tug. MMSI: 366939080.

Date/timePositionNaut miles runAvg speedWind from/ knotsBaromVisibWave heightAir tempDewpointWater temp
2014-Nov-12 23:05N 38°03' W 076°14'3 5.7
2014-Nov-12 22:33N 38°06' W 076°15'52 5.8
2014-Nov-12 13:33N 38°58' W 076°24'6 4.8
2014-Nov-12 12:13N 39°04' W 076°21'4 5.3
2014-Nov-12 11:33N 39°07' W 076°20'18 6.1
2014-Nov-12 08:34N 39°23' W 076°07'9 5.9
2014-Nov-12 07:04N 39°28' W 075°58'7 4.5
2014-Nov-12 05:33N 39°32' W 075°50'4 3.8
2014-Nov-12 04:29N 39°32' W 075°45'3 3.7
2014-Nov-12 03:34N 39°33' W 075°41'3 3.5
2014-Nov-12 02:33N 39°33' W 075°36'3 3.2
2014-Nov-12 01:33N 39°36' W 075°34'7 7.1
2014-Nov-12 00:33N 39°43' W 075°31'9 7.2
2014-Nov-11 23:22N 39°49' W 075°23'15 1.8
2014-Nov-11 15:18N 39°57' W 075°08'0 0.0
2014-Nov-11 14:33N 39°57' W 075°08'0 0.0
2014-Nov-11 13:17N 39°57' W 075°08'0 0.0
2014-Nov-11 12:28N 39°57' W 075°08'0 0.0
2014-Nov-11 11:29N 39°57' W 075°08'0 0.0
2014-Nov-11 10:33N 39°57' W 075°08'0 0.0
2014-Nov-11 09:32N 39°57' W 075°08'0 0.0
2014-Nov-11 08:33N 39°57' W 075°08'0 0.0
2014-Nov-11 07:33N 39°57' W 075°08'0 0.0
2014-Nov-11 06:34N 39°57' W 075°08'0 0.0
2014-Nov-11 05:33N 39°57' W 075°08'0 0.0
2014-Nov-11 04:28N 39°57' W 075°08'0 0.0
2014-Nov-11 03:14N 39°57' W 075°08'2 0.1
2014-Nov-10 14:21N 39°56' W 075°08'6 7.5
2014-Nov-10 13:32N 39°51' W 075°14'4 2.4
2014-Nov-10 12:04N 39°51' W 075°18'3 5.9
2014-Nov-10 11:33N 39°50' W 075°22'0 0.0
2014-Nov-10 06:33N 39°50' W 075°22'9 9.3
2014-Nov-10 05:33N 39°43' W 075°30'9 9.1
2014-Nov-10 04:33N 39°34' W 075°33'8 7.6
2014-Nov-10 03:33N 39°26' W 075°32'3 2.5
2014-Nov-10 02:33N 39°24' W 075°30'60 4.5
2014-Nov-09 13:05N 39°31' W 074°12'4 7.2
2014-Nov-09 12:33N 39°35' W 074°10'7 7.2
2014-Nov-09 11:33N 39°41' W 074°06'7 7.1
2014-Nov-09 10:34N 39°48' W 074°03'7 7.4
2014-Nov-09 09:33N 39°55' W 074°02'7 7.3
2014-Nov-09 08:33N 40°03' W 074°01'7 7.2
2014-Nov-09 07:33N 40°10' W 073°59'7 7.4
2014-Nov-09 06:33N 40°17' W 073°57'8 7.7
2014-Nov-09 05:31N 40°25' W 073°57'8 7.8
2014-Nov-09 04:30N 40°32' W 074°02'7 6.9
2014-Nov-09 03:33N 40°38' W 074°03'2 2.3
2014-Nov-09 02:33N 40°41' W 074°04'0 0.0
2014-Nov-09 01:34N 40°41' W 074°04'0 0.0
2014-Nov-09 00:32N 40°41' W 074°04'0 0.0
2014-Nov-08 23:33N 40°41' W 074°04'0 0.0
2014-Nov-08 22:34N 40°41' W 074°04'0 0.0
2014-Nov-08 21:33N 40°41' W 074°04'0 0.0
2014-Nov-08 20:34N 40°41' W 074°04'0 0.0
2014-Nov-08 19:33N 40°41' W 074°04'0 0.0
2014-Nov-08 18:34N 40°41' W 074°04'0 0.0
2014-Nov-08 17:34N 40°41' W 074°04'0 0.1
2014-Nov-08 16:34N 40°41' W 074°05'0 0.0
2014-Nov-08 15:34N 40°41' W 074°05'0 0.0
2014-Nov-08 14:33N 40°41' W 074°05'0 0.0
2014-Nov-08 13:34N 40°41' W 074°05'0 0.0
2014-Nov-08 12:34N 40°41' W 074°05'0 0.0
2014-Nov-08 11:33N 40°41' W 074°05'0 0.0
2014-Nov-08 10:34N 40°41' W 074°05'0 0.0
2014-Nov-08 09:34N 40°41' W 074°05'0 0.0
2014-Nov-08 08:34N 40°41' W 074°05'0 0.0
2014-Nov-08 07:34N 40°41' W 074°05'0 0.0
2014-Nov-08 06:33N 40°41' W 074°05'0 0.0
2014-Nov-08 05:34N 40°41' W 074°05'0 0.0
2014-Nov-08 04:34N 40°41' W 074°05'0 0.0
2014-Nov-08 03:34N 40°41' W 074°05'0 0.0
2014-Nov-08 02:34N 40°41' W 074°05'0 0.1
2014-Nov-08 01:33N 40°40' W 074°05'0 0.1
2014-Nov-08 00:32N 40°41' W 074°05'5 5.0
2014-Nov-07 23:32N 40°39' W 074°11'1 1.0
2014-Nov-07 22:34N 40°38' W 074°12'0 0.0
2014-Nov-07 21:34N 40°38' W 074°12'0 0.0
2014-Nov-07 20:34N 40°38' W 074°12'0 0.1
2014-Nov-07 19:33N 40°38' W 074°12'9 4.3
2014-Nov-07 17:29N 40°30' W 074°08'9 8.2
2014-Nov-07 16:25N 40°27' W 073°57'3910.2
2014-Nov-07 12:33N 39°48' W 074°03'1010.3
2014-Nov-07 11:33N 39°39' W 074°07'  
2014-Nov-05 07:17N 38°38' W 074°60'11 6.2
2014-Nov-05 05:33N 38°48' W 074°54'7 6.6
2014-Nov-05 04:33N 38°53' W 074°48'7 6.6
2014-Nov-05 03:34N 38°59' W 074°45'7 6.7
2014-Nov-05 02:33N 39°05' W 074°41'7 7.0
2014-Nov-05 01:33N 39°10' W 074°36'7 7.0
2014-Nov-05 00:33N 39°15' W 074°29'7 7.2
2014-Nov-04 23:34N 39°19' W 074°22'7 7.4
2014-Nov-04 22:34N 39°25' W 074°16'7 7.5
2014-Nov-04 21:33N 39°32' W 074°11'8 7.4
2014-Nov-04 20:32N 39°38' W 074°07'8 7.7
2014-Nov-04 19:33N 39°46' W 074°03'8 7.6
2014-Nov-04 18:33N 39°53' W 074°02'8 7.7
2014-Nov-04 17:32N 40°01' W 074°01'8 7.7
2014-Nov-04 16:33N 40°08' W 073°59'8 7.5
2014-Nov-04 15:33N 40°16' W 073°58'8 7.6
2014-Nov-04 14:34N 40°23' W 073°56'8 7.1
2014-Nov-04 13:22N 40°31' W 074°02'6 7.4
2014-Nov-04 12:34N 40°37' W 074°03'4 3.8
2014-Nov-04 11:33N 40°40' W 074°04'0 0.4
2014-Nov-04 10:32N 40°40' W 074°04'0 0.0
2014-Nov-04 09:26N 40°40' W 074°04'0 0.0
2014-Nov-04 08:32N 40°40' W 074°04'0 0.0
2014-Nov-04 07:32N 40°40' W 074°04'0 0.0
2014-Nov-04 06:26N 40°40' W 074°04'0 0.0
2014-Nov-04 05:32N 40°40' W 074°04'0 0.0
2014-Nov-04 04:32N 40°40' W 074°04'0 0.0
2014-Nov-04 03:32N 40°40' W 074°04'0 0.0
2014-Nov-04 02:32N 40°41' W 074°04'1 0.7
2014-Nov-04 01:34N 40°40' W 074°04'8 1.1
2014-Nov-03 17:39N 40°31' W 074°04'1 9.8
2014-Nov-03 17:33N 40°32' W 074°03'8 7.3
2014-Nov-03 16:23N 40°41' W 074°05'5 2.6
2014-Nov-03 14:31N 40°45' W 074°01'0 0.0
2014-Nov-03 13:31N 40°45' W 074°01'0 0.1
2014-Nov-03 12:31N 40°45' W 074°01'0 0.2
2014-Nov-03 11:33N 40°45' W 074°01'6 6.2
2014-Nov-03 10:33N 40°39' W 074°05'  
Track history (hours):
 
Tides and Currents Weather Stations Pressure Air Temp Water Temp Dewpoint Dewpoint Depression Visibility Wind Speed Wind Dir Waves Ship Positions

Shelby

Owner: WEEKS MARINE, INC., CRANFORD, NJ. More information available from US FCC via Universal Licensing System and Coast Guard Vessel Documentation Center.

Last reported at 2014-Nov-12 23:05 UTC. Time now 2014-Nov-29 08:35 UTC.
Position N 38°03' W 076°14'.
Warning: this ship's position is 16 days out of date.

Length 22 m; draft 3.1 m.

Type: Tug. MMSI: 366939080.

Date/timePositionNaut miles runAvg speedWind from/ knotsBaromVisibWave heightAir tempDewpointWater temp
2014-Nov-12 23:05N 38°03' W 076°14'3 5.7
2014-Nov-12 22:33N 38°06' W 076°15'52 5.8
2014-Nov-12 13:33N 38°58' W 076°24'6 4.8
2014-Nov-12 12:13N 39°04' W 076°21'4 5.3
2014-Nov-12 11:33N 39°07' W 076°20'18 6.1
2014-Nov-12 08:34N 39°23' W 076°07'9 5.9
2014-Nov-12 07:04N 39°28' W 075°58'7 4.5
2014-Nov-12 05:33N 39°32' W 075°50'4 3.8
2014-Nov-12 04:29N 39°32' W 075°45'3 3.7
2014-Nov-12 03:34N 39°33' W 075°41'3 3.5
2014-Nov-12 02:33N 39°33' W 075°36'3 3.2
2014-Nov-12 01:33N 39°36' W 075°34'7 7.1
2014-Nov-12 00:33N 39°43' W 075°31'9 7.2
2014-Nov-11 23:22N 39°49' W 075°23'15 1.8
2014-Nov-11 15:18N 39°57' W 075°08'0 0.0
2014-Nov-11 14:33N 39°57' W 075°08'0 0.0
2014-Nov-11 13:17N 39°57' W 075°08'0 0.0
2014-Nov-11 12:28N 39°57' W 075°08'0 0.0
2014-Nov-11 11:29N 39°57' W 075°08'0 0.0
2014-Nov-11 10:33N 39°57' W 075°08'0 0.0
2014-Nov-11 09:32N 39°57' W 075°08'0 0.0
2014-Nov-11 08:33N 39°57' W 075°08'0 0.0
2014-Nov-11 07:33N 39°57' W 075°08'0 0.0
2014-Nov-11 06:34N 39°57' W 075°08'0 0.0
2014-Nov-11 05:33N 39°57' W 075°08'0 0.0
2014-Nov-11 04:28N 39°57' W 075°08'0 0.0
2014-Nov-11 03:14N 39°57' W 075°08'2 0.1
2014-Nov-10 14:21N 39°56' W 075°08'6 7.5
2014-Nov-10 13:32N 39°51' W 075°14'4 2.4
2014-Nov-10 12:04N 39°51' W 075°18'3 5.9
2014-Nov-10 11:33N 39°50' W 075°22'0 0.0
2014-Nov-10 06:33N 39°50' W 075°22'9 9.3
2014-Nov-10 05:33N 39°43' W 075°30'9 9.1
2014-Nov-10 04:33N 39°34' W 075°33'8 7.6
2014-Nov-10 03:33N 39°26' W 075°32'3 2.5
2014-Nov-10 02:33N 39°24' W 075°30'60 4.5
2014-Nov-09 13:05N 39°31' W 074°12'4 7.2
2014-Nov-09 12:33N 39°35' W 074°10'7 7.2
2014-Nov-09 11:33N 39°41' W 074°06'7 7.1
2014-Nov-09 10:34N 39°48' W 074°03'7 7.4
2014-Nov-09 09:33N 39°55' W 074°02'7 7.3
2014-Nov-09 08:33N 40°03' W 074°01'7 7.2
2014-Nov-09 07:33N 40°10' W 073°59'7 7.4
2014-Nov-09 06:33N 40°17' W 073°57'8 7.7
2014-Nov-09 05:31N 40°25' W 073°57'8 7.8
2014-Nov-09 04:30N 40°32' W 074°02'7 6.9
2014-Nov-09 03:33N 40°38' W 074°03'2 2.3
2014-Nov-09 02:33N 40°41' W 074°04'0 0.0
2014-Nov-09 01:34N 40°41' W 074°04'0 0.0
2014-Nov-09 00:32N 40°41' W 074°04'0 0.0
2014-Nov-08 23:33N 40°41' W 074°04'0 0.0
2014-Nov-08 22:34N 40°41' W 074°04'0 0.0
2014-Nov-08 21:33N 40°41' W 074°04'0 0.0
2014-Nov-08 20:34N 40°41' W 074°04'0 0.0
2014-Nov-08 19:33N 40°41' W 074°04'0 0.0
2014-Nov-08 18:34N 40°41' W 074°04'0 0.0
2014-Nov-08 17:34N 40°41' W 074°04'0 0.1
2014-Nov-08 16:34N 40°41' W 074°05'0 0.0
2014-Nov-08 15:34N 40°41' W 074°05'0 0.0
2014-Nov-08 14:33N 40°41' W 074°05'0 0.0
2014-Nov-08 13:34N 40°41' W 074°05'0 0.0
2014-Nov-08 12:34N 40°41' W 074°05'0 0.0
2014-Nov-08 11:33N 40°41' W 074°05'0 0.0
2014-Nov-08 10:34N 40°41' W 074°05'0 0.0
2014-Nov-08 09:34N 40°41' W 074°05'0 0.0
2014-Nov-08 08:34N 40°41' W 074°05'0 0.0
2014-Nov-08 07:34N 40°41' W 074°05'0 0.0
2014-Nov-08 06:33N 40°41' W 074°05'0 0.0
2014-Nov-08 05:34N 40°41' W 074°05'0 0.0
2014-Nov-08 04:34N 40°41' W 074°05'0 0.0
2014-Nov-08 03:34N 40°41' W 074°05'0 0.0
2014-Nov-08 02:34N 40°41' W 074°05'0 0.1
2014-Nov-08 01:33N 40°40' W 074°05'0 0.1
2014-Nov-08 00:32N 40°41' W 074°05'5 5.0
2014-Nov-07 23:32N 40°39' W 074°11'1 1.0
2014-Nov-07 22:34N 40°38' W 074°12'0 0.0
2014-Nov-07 21:34N 40°38' W 074°12'0 0.0
2014-Nov-07 20:34N 40°38' W 074°12'0 0.1
2014-Nov-07 19:33N 40°38' W 074°12'9 4.3
2014-Nov-07 17:29N 40°30' W 074°08'9 8.2
2014-Nov-07 16:25N 40°27' W 073°57'3910.2
2014-Nov-07 12:33N 39°48' W 074°03'1010.3
2014-Nov-07 11:33N 39°39' W 074°07'  
2014-Nov-05 07:17N 38°38' W 074°60'11 6.2
2014-Nov-05 05:33N 38°48' W 074°54'7 6.6
2014-Nov-05 04:33N 38°53' W 074°48'7 6.6
2014-Nov-05 03:34N 38°59' W 074°45'7 6.7
2014-Nov-05 02:33N 39°05' W 074°41'7 7.0
2014-Nov-05 01:33N 39°10' W 074°36'7 7.0
2014-Nov-05 00:33N 39°15' W 074°29'7 7.2
2014-Nov-04 23:34N 39°19' W 074°22'7 7.4
2014-Nov-04 22:34N 39°25' W 074°16'7 7.5
2014-Nov-04 21:33N 39°32' W 074°11'8 7.4
2014-Nov-04 20:32N 39°38' W 074°07'8 7.7
2014-Nov-04 19:33N 39°46' W 074°03'8 7.6
2014-Nov-04 18:33N 39°53' W 074°02'8 7.7
2014-Nov-04 17:32N 40°01' W 074°01'8 7.7
2014-Nov-04 16:33N 40°08' W 073°59'8 7.5
2014-Nov-04 15:33N 40°16' W 073°58'8 7.6
2014-Nov-04 14:34N 40°23' W 073°56'8 7.1
2014-Nov-04 13:22N 40°31' W 074°02'6 7.4
2014-Nov-04 12:34N 40°37' W 074°03'4 3.8
2014-Nov-04 11:33N 40°40' W 074°04'0 0.4
2014-Nov-04 10:32N 40°40' W 074°04'0 0.0
2014-Nov-04 09:26N 40°40' W 074°04'0 0.0
2014-Nov-04 08:32N 40°40' W 074°04'0 0.0
2014-Nov-04 07:32N 40°40' W 074°04'0 0.0
2014-Nov-04 06:26N 40°40' W 074°04'0 0.0
2014-Nov-04 05:32N 40°40' W 074°04'0 0.0
2014-Nov-04 04:32N 40°40' W 074°04'0 0.0
2014-Nov-04 03:32N 40°40' W 074°04'0 0.0
2014-Nov-04 02:32N 40°41' W 074°04'1 0.7
2014-Nov-04 01:34N 40°40' W 074°04'8 1.1
2014-Nov-03 17:39N 40°31' W 074°04'1 9.8
2014-Nov-03 17:33N 40°32' W 074°03'8 7.3
2014-Nov-03 16:23N 40°41' W 074°05'5 2.6
2014-Nov-03 14:31N 40°45' W 074°01'0 0.0
2014-Nov-03 13:31N 40°45' W 074°01'0 0.1
2014-Nov-03 12:31N 40°45' W 074°01'0 0.2
2014-Nov-03 11:33N 40°45' W 074°01'6 6.2
2014-Nov-03 10:33N 40°39' W 074°05'  

Dump ship's entire track history